Time;durP1;ratioP1;P1;durP2;ratioP2;P2;SDS_P1;SDS_P2;PMS_P1;PMS_P2;Temp;Humidity;BMP_temperature;BMP_pressure;BME280_temperature;BME280_humidity;BME280_pressure;Samples;Min_cycle;Max_cycle;Signal;HPM_P1;HPM_P2
2023/11/20 00:00:33;;;;;;;27.00;6.63;;;;;;;9.84;100.00;100756.25;5043109;28;20095;-75
2023/11/20 00:02:58;;;;;;;24.90;5.95;;;;;;;9.81;100.00;100746.56;5043003;28;20032;-74
2023/11/20 00:05:24;;;;;;;25.70;6.50;;;;;;;9.81;100.00;100761.53;5042025;28;20025;-72
2023/11/20 00:07:49;;;;;;;28.92;6.93;;;;;;;9.85;100.00;100755.38;5044264;28;20025;-74
2023/11/20 00:10:15;;;;;;;23.98;6.40;;;;;;;9.84;100.00;100766.81;5040922;28;20025;-74
2023/11/20 00:12:40;;;;;;;26.20;6.88;;;;;;;9.87;100.00;100773.00;5043935;28;20064;-74
2023/11/20 00:15:09;;;;;;;25.83;6.57;;;;;;;9.91;100.00;100771.25;5041885;28;20082;-72
2023/11/20 00:17:34;;;;;;;25.13;6.05;;;;;;;9.95;100.00;100770.41;5042929;28;20041;-73
2023/11/20 00:20:00;;;;;;;25.67;6.03;;;;;;;9.91;100.00;100753.66;5043129;28;20029;-72
2023/11/20 00:22:25;;;;;;;25.30;6.35;;;;;;;9.91;100.00;100753.66;5040488;28;20459;-72
2023/11/20 00:24:51;;;;;;;23.15;6.20;;;;;;;9.93;100.00;100756.28;5044096;28;20380;-74
2023/11/20 00:27:16;;;;;;;26.17;6.25;;;;;;;9.91;100.00;100760.69;5040875;28;20108;-73
2023/11/20 00:29:42;;;;;;;25.17;6.40;;;;;;;9.94;100.00;100763.34;5043792;28;20385;-74
2023/11/20 00:32:08;;;;;;;25.23;6.20;;;;;;;9.92;100.00;100752.78;5041661;28;20080;-72
2023/11/20 00:34:37;;;;;;;28.42;6.15;;;;;;;9.88;100.00;100756.28;5042557;28;20061;-74
2023/11/20 00:37:02;;;;;;;24.05;5.68;;;;;;;9.88;100.00;100745.72;5042273;28;20029;-74
2023/11/20 00:39:27;;;;;;;24.95;6.20;;;;;;;9.88;100.00;100755.41;5041888;28;20052;-74
2023/11/20 00:41:53;;;;;;;23.05;5.82;;;;;;;9.93;100.00;100751.00;5043576;28;20487;-74
2023/11/20 00:44:18;;;;;;;23.80;5.57;;;;;;;9.92;100.00;100749.28;5040585;28;20036;-74
2023/11/20 00:46:43;;;;;;;23.10;5.60;;;;;;;9.91;100.00;100752.78;5044069;28;20507;-74
2023/11/20 00:49:09;;;;;;;23.67;5.47;;;;;;;9.92;100.00;100749.28;5041230;28;20055;-74
2023/11/20 00:51:34;;;;;;;23.67;5.75;;;;;;;9.99;100.00;100760.72;5042622;28;20071;-74
2023/11/20 00:54:00;;;;;;;24.77;5.70;;;;;;;9.98;100.00;100759.84;5042715;28;20168;-74
2023/11/20 00:56:26;;;;;;;25.23;5.80;;;;;;;9.99;100.00;100761.63;5041158;28;20040;-74
2023/11/20 00:58:51;;;;;;;23.00;5.45;;;;;;;10.04;100.00;100778.38;5043641;28;20032;-74
2023/11/20 01:01:17;;;;;;;25.17;6.10;;;;;;;9.99;100.00;100758.09;5043977;28;20108;-74
2023/11/20 01:03:43;;;;;;;23.10;5.65;;;;;;;10.00;100.00;100763.38;5047197;28;20095;-74
2023/11/20 01:06:08;;;;;;;23.42;5.30;;;;;;;10.03;100.00;100770.44;5045228;28;20111;-74
2023/11/20 01:08:37;;;;;;;24.88;5.50;;;;;;;10.06;100.00;100755.50;5045983;28;20453;-74
2023/11/20 01:11:10;;;;;;;24.77;5.38;;;;;;;10.08;100.00;100777.53;5046168;28;20380;-72
2023/11/20 01:13:36;;;;;;;23.73;5.40;;;;;;;10.14;100.00;100765.22;5046132;28;20030;-70
2023/11/20 01:16:04;;;;;;;23.95;5.57;;;;;;;10.12;100.00;100765.22;5046030;28;20025;-71
2023/11/20 01:18:31;;;;;;;21.45;5.35;;;;;;;10.14;100.00;100768.75;5043961;28;20033;-72
2023/11/20 01:20:56;;;;;;;26.25;5.70;;;;;;;10.16;100.00;100774.91;5046418;28;20123;-71
2023/11/20 01:23:21;;;;;;;24.27;5.78;;;;;;;10.19;100.00;100782.84;5044295;28;20030;-71
2023/11/20 01:25:47;;;;;;;28.63;6.85;;;;;;;10.22;100.00;100784.63;5047329;28;20468;-73
2023/11/20 01:28:12;;;;;;;26.80;6.40;;;;;;;10.20;100.00;100794.31;5044178;28;20523;-72
2023/11/20 01:30:37;;;;;;;25.83;5.93;;;;;;;10.18;100.00;100781.09;5046300;28;20499;-72
2023/11/20 01:33:03;;;;;;;26.65;6.40;;;;;;;10.17;100.00;100791.66;5045224;28;20025;-72
2023/11/20 01:35:28;;;;;;;25.55;6.00;;;;;;;10.09;100.00;100800.44;5044931;28;20025;-72
2023/11/20 01:37:53;;;;;;;27.08;6.70;;;;;;;10.08;100.00;100792.50;5045639;28;20112;-71
2023/11/20 01:40:19;;;;;;;25.50;6.28;;;;;;;10.02;100.00;100814.47;5043480;28;20085;-72
2023/11/20 01:42:45;;;;;;;26.48;7.00;;;;;;;10.01;100.00;100794.19;5039964;28;20069;-72
2023/11/20 01:45:11;;;;;;;27.60;7.25;;;;;;;9.94;100.00;100809.13;5046306;28;20381;-72
2023/11/20 01:47:37;;;;;;;26.63;7.25;;;;;;;9.97;100.00;100810.91;5044655;28;20021;-74
2023/11/20 01:50:05;;;;;;;28.98;7.63;;;;;;;9.92;100.00;100812.66;5044024;28;20029;-74
2023/11/20 01:52:32;;;;;;;27.02;6.90;;;;;;;9.88;100.00;100813.50;5045327;28;20108;-74
2023/11/20 01:54:58;;;;;;;28.58;6.93;;;;;;;9.90;100.00;100823.19;5044169;28;20491;-74
2023/11/20 01:57:23;;;;;;;24.25;6.88;;;;;;;9.85;100.00;100810.84;5046455;28;20029;-74
2023/11/20 01:59:50;;;;;;;24.23;6.53;;;;;;;9.81;100.00;100819.59;5043366;28;20487;-73
2023/11/20 02:02:16;;;;;;;26.95;6.70;;;;;;;9.76;100.00;100811.66;5046847;28;20036;-74
2023/11/20 02:04:42;;;;;;;26.00;6.93;;;;;;;9.76;100.00;100815.16;5043877;28;20436;-74
2023/11/20 02:07:08;;;;;;;24.88;6.57;;;;;;;9.69;100.00;100826.56;5045427;28;20033;-74
2023/11/20 02:09:35;;;;;;;25.40;7.15;;;;;;;9.66;100.00;100820.38;5044657;28;20033;-74
2023/11/20 02:12:00;;;;;;;23.83;6.75;;;;;;;9.67;100.00;100815.09;5044578;28;20039;-74
2023/11/20 02:14:26;;;;;;;23.80;6.85;;;;;;;9.63;100.00;100805.41;5045548;28;20391;-74
2023/11/20 02:16:52;;;;;;;24.70;7.22;;;;;;;9.60;100.00;100815.94;5043026;28;20036;-74
2023/11/20 02:19:17;;;;;;;24.35;7.30;;;;;;;9.59;100.00;100806.25;5046403;28;20488;-74
2023/11/20 02:21:44;;;;;;;27.13;7.53;;;;;;;9.58;100.00;100799.19;5043069;28;20065;-74
2023/11/20 02:24:10;;;;;;;28.25;8.43;;;;;;;9.53;100.00;100803.56;5045737;28;20053;-72
2023/11/20 02:26:54;;;;;;;27.75;8.32;;;;;;;9.53;100.00;100798.28;5044461;28;20029;-72
2023/11/20 02:29:31;;;;;;;26.20;7.95;;;;;;;9.48;100.00;100794.69;5039391;28;20049;-72
2023/11/20 02:31:57;;;;;;;27.85;8.00;;;;;;;9.42;100.00;100796.44;5040965;28;20083;-72
2023/11/20 02:34:22;;;;;;;30.00;7.43;;;;;;;9.40;100.00;100795.53;5045764;28;20028;-72
2023/11/20 02:36:48;;;;;;;28.65;6.88;;;;;;;9.38;100.00;100797.28;5042700;28;20036;-70
2023/11/20 02:39:14;;;;;;;27.52;6.50;;;;;;;9.38;100.00;100784.09;5044228;28;20072;-72
2023/11/20 02:41:40;;;;;;;28.38;6.68;;;;;;;9.34;100.00;100790.22;5043319;28;20045;-72
2023/11/20 02:44:05;;;;;;;27.85;6.22;;;;;;;9.32;100.00;100789.31;5044837;28;20052;-72
2023/11/20 02:46:31;;;;;;;26.40;5.80;;;;;;;9.34;100.00;100786.69;5044638;28;20025;-73
2023/11/20 02:48:57;;;;;;;28.23;5.40;;;;;;;9.28;100.00;100782.25;5042982;28;20514;-72
2023/11/20 02:51:23;;;;;;;26.50;5.80;;;;;;;9.30;100.00;100788.41;5045621;28;20025;-72
2023/11/20 02:53:48;;;;;;;27.35;5.78;;;;;;;9.27;100.00;100780.47;5042229;28;20482;-71
2023/11/20 02:56:14;;;;;;;24.85;5.43;;;;;;;9.32;100.00;100794.59;5045245;28;20037;-71
2023/11/20 02:58:39;;;;;;;27.05;5.78;;;;;;;9.31;100.00;100792.81;5043125;28;20479;-72
2023/11/20 03:01:07;;;;;;;25.85;5.40;;;;;;;9.31;100.00;100782.25;5043877;28;20033;-71
2023/11/20 03:03:33;;;;;;;26.88;5.60;;;;;;;9.28;100.00;100787.53;5043844;28;20033;-72
2023/11/20 03:05:59;;;;;;;27.77;5.55;;;;;;;9.31;100.00;100781.41;5043039;28;20438;-71
2023/11/20 03:08:24;;;;;;;29.40;5.75;;;;;;;9.31;100.00;100787.53;5044942;28;20064;-72
2023/11/20 03:10:49;;;;;;;29.17;5.78;;;;;;;9.33;100.00;100784.91;5042116;28;20040;-71
2023/11/20 03:13:15;;;;;;;26.75;5.22;;;;;;;9.30;100.00;100774.34;5045298;28;20092;-72
2023/11/20 03:15:40;;;;;;;26.13;5.38;;;;;;;9.23;100.00;100776.94;5042405;28;20468;-70
2023/11/20 03:18:06;;;;;;;27.10;5.80;;;;;;;9.24;100.00;100777.81;5043872;28;20041;-72
2023/11/20 03:20:31;;;;;;;29.25;6.50;;;;;;;9.11;100.00;100774.16;5043700;28;20024;-72
2023/11/20 03:22:57;;;;;;;27.77;7.05;;;;;;;9.07;100.00;100773.28;5041755;28;20022;-72
2023/11/20 03:25:22;;;;;;;28.05;7.28;;;;;;;9.08;100.00;100779.41;5045067;28;20389;-72
2023/11/20 03:27:48;;;;;;;28.88;7.50;;;;;;;9.11;100.00;100771.53;5041549;28;20039;-71
2023/11/20 03:30:13;;;;;;;29.35;8.18;;;;;;;9.13;100.00;100771.53;5044525;28;20095;-70
2023/11/20 03:32:39;;;;;;;27.98;8.43;;;;;;;9.12;100.00;100775.06;5042706;28;20468;-72
2023/11/20 03:35:07;;;;;;;29.42;8.40;;;;;;;9.16;100.00;100779.47;5043086;28;20069;-71
2023/11/20 03:37:34;;;;;;;28.40;8.50;;;;;;;9.15;100.00;100781.25;5043236;28;20098;-71
2023/11/20 03:39:59;;;;;;;28.65;9.38;;;;;;;9.18;100.00;100785.69;5042477;28;20099;-72
2023/11/20 03:42:25;;;;;;;30.85;10.65;;;;;;;9.22;100.00;100777.78;5044223;28;20030;-71
2023/11/20 03:44:52;;;;;;;30.65;10.05;;;;;;;9.27;100.00;100791.03;5041379;28;20025;-72
2023/11/20 03:47:17;;;;;;;29.27;9.98;;;;;;;9.33;100.00;100792.84;5037495;28;20112;-71
2023/11/20 03:49:43;;;;;;;30.00;10.65;;;;;;;9.38;100.00;100786.72;5044167;28;20108;-72
2023/11/20 03:52:08;;;;;;;33.10;10.57;;;;;;;9.37;100.00;100787.59;5040941;28;20040;-71
2023/11/20 03:54:33;;;;;;;32.05;10.88;;;;;;;9.34;100.00;100800.75;5041597;28;20029;-71
2023/11/20 03:56:59;;;;;;;31.52;10.48;;;;;;;9.34;100.00;100795.47;5043494;28;20507;-70
2023/11/20 03:59:24;;;;;;;29.23;9.73;;;;;;;9.33;100.00;100809.53;5041384;28;20026;-74
2023/11/20 04:01:50;;;;;;;27.88;9.43;;;;;;;9.32;100.00;100797.25;5044681;28;20076;-71
2023/11/20 04:04:15;;;;;;;30.73;10.43;;;;;;;9.25;100.00;100792.78;5041202;28;20245;-72
2023/11/20 04:06:41;;;;;;;33.30;10.45;;;;;;;9.20;100.00;100797.09;5043978;28;20026;-75
2023/11/20 04:09:06;;;;;;;30.55;9.93;;;;;;;9.17;100.00;100799.72;5042641;28;20429;-73
2023/11/20 04:11:32;;;;;;;30.13;9.70;;;;;;;9.17;100.00;100794.44;5042256;28;20464;-75
2023/11/20 04:13:58;;;;;;;31.60;9.77;;;;;;;9.13;100.00;100797.91;5043741;28;20037;-74
2023/11/20 04:16:23;;;;;;;31.17;9.60;;;;;;;9.13;100.00;100803.19;5041022;28;20503;-72
2023/11/20 04:18:48;;;;;;;28.85;9.10;;;;;;;9.10;100.00;100803.16;5044261;28;20057;-72
2023/11/20 04:21:14;;;;;;;28.40;8.50;;;;;;;9.10;100.00;100803.16;5041233;28;20465;-75
2023/11/20 04:23:39;;;;;;;31.80;8.88;;;;;;;9.07;100.00;100799.66;5041857;28;20108;-74
2023/11/20 04:26:05;;;;;;;29.13;8.82;;;;;;;9.06;100.00;100802.28;5042686;28;20029;-72
2023/11/20 04:28:35;;;;;;;29.50;8.55;;;;;;;9.04;100.00;100801.34;5040890;28;20105;-71
2023/11/20 04:31:00;;;;;;;30.70;8.57;;;;;;;9.06;100.00;100800.50;5042947;28;20032;-71
2023/11/20 04:33:26;;;;;;;29.15;8.20;;;;;;;9.06;100.00;100803.13;5041618;28;20385;-71
2023/11/20 04:35:52;;;;;;;28.88;8.50;;;;;;;9.06;100.00;100813.69;5048553;28;20029;-72
2023/11/20 04:38:17;;;;;;;27.48;8.52;;;;;;;9.05;100.00;100804.00;5040700;28;20171;-72
2023/11/20 04:40:43;;;;;;;31.80;8.80;;;;;;;9.06;100.00;100803.13;5047441;28;20123;-73
2023/11/20 04:43:09;;;;;;;29.25;8.50;;;;;;;9.07;100.00;100804.00;5045981;28;20111;-73
2023/11/20 04:45:34;;;;;;;29.17;8.95;;;;;;;9.06;100.00;100804.91;5044945;28;20029;-72
2023/11/20 04:47:59;;;;;;;31.65;9.18;;;;;;;9.06;100.00;100795.22;5046983;28;20017;-73
2023/11/20 04:50:25;;;;;;;30.38;8.68;;;;;;;9.06;100.00;100797.88;5045078;28;20072;-72
2023/11/20 04:52:50;;;;;;;30.00;8.15;;;;;;;9.06;100.00;100797.88;5047872;28;20107;-71
2023/11/20 04:55:16;;;;;;;28.20;8.02;;;;;;;9.07;100.00;100789.09;5044680;28;20033;-72
2023/11/20 04:57:43;;;;;;;27.58;7.90;;;;;;;9.05;100.00;100789.94;5047145;28;20026;-71
2023/11/20 05:00:11;;;;;;;28.73;8.18;;;;;;;9.04;100.00;100783.78;5045505;28;20090;-70
2023/11/20 05:02:36;;;;;;;30.63;8.27;;;;;;;9.07;100.00;100786.47;5046366;28;20029;-71
2023/11/20 05:05:01;;;;;;;30.67;7.82;;;;;;;9.06;100.00;100787.31;5046713;28;20039;-72
2023/11/20 05:07:27;;;;;;;27.48;8.18;;;;;;;9.05;100.00;100790.81;5044755;28;20104;-72
2023/11/20 05:09:54;;;;;;;27.98;7.63;;;;;;;9.07;100.00;100797.00;5047904;28;20113;-72
2023/11/20 05:12:19;;;;;;;28.73;7.72;;;;;;;9.07;100.00;100786.47;5040539;28;20034;-70
2023/11/20 05:14:45;;;;;;;27.48;7.60;;;;;;;9.10;100.00;100787.34;5047253;28;20491;-71
2023/11/20 05:17:10;;;;;;;28.92;7.60;;;;;;;9.07;100.00;100794.38;5045206;28;20423;-71
2023/11/20 05:19:36;;;;;;;30.83;8.13;;;;;;;9.08;100.00;100789.97;5045721;28;20069;-72
2023/11/20 05:22:01;;;;;;;31.05;8.18;;;;;;;9.07;100.00;100788.19;5046090;28;20055;-72
2023/11/20 05:24:26;;;;;;;29.58;7.88;;;;;;;9.08;100.00;100795.25;5044656;28;20108;-71
2023/11/20 05:26:52;;;;;;;27.35;7.40;;;;;;;9.08;100.00;100803.16;5047327;28;20507;-72
2023/11/20 05:29:17;;;;;;;30.08;7.57;;;;;;;9.07;100.00;100789.09;5044207;28;20481;-71
2023/11/20 05:31:44;;;;;;;30.50;7.78;;;;;;;9.09;100.00;100810.22;5046608;28;20029;-71
2023/11/20 05:34:09;;;;;;;28.45;7.05;;;;;;;9.16;100.00;100796.22;5044832;28;20036;-71
2023/11/20 05:36:34;;;;;;;28.08;7.00;;;;;;;9.16;100.00;100801.47;5045386;28;20041;-71
2023/11/20 05:39:00;;;;;;;26.23;6.45;;;;;;;9.17;100.00;100803.22;5045963;28;20029;-70
2023/11/20 05:41:25;;;;;;;25.90;6.25;;;;;;;9.19;100.00;100804.16;5044298;28;20067;-71
2023/11/20 05:43:50;;;;;;;28.13;6.60;;;;;;;9.25;100.00;100801.56;5047074;28;20033;-70
2023/11/20 05:46:16;;;;;;;28.08;6.45;;;;;;;9.25;100.00;100798.06;5043110;28;20029;-71
2023/11/20 05:48:41;;;;;;;27.20;6.20;;;;;;;9.28;100.00;100799.84;5044758;28;20100;-71
2023/11/20 05:51:06;;;;;;;26.65;6.00;;;;;;;9.23;100.00;100792.75;5045144;28;20064;-71
2023/11/20 05:53:32;;;;;;;26.67;6.05;;;;;;;9.23;100.00;100805.03;5044576;28;20033;-70
2023/11/20 05:55:57;;;;;;;26.55;5.88;;;;;;;9.25;100.00;100803.31;5046075;28;20179;-72
2023/11/20 05:58:23;;;;;;;27.27;5.60;;;;;;;9.27;100.00;100798.94;5043696;28;20061;-72
2023/11/20 06:00:48;;;;;;;25.67;5.57;;;;;;;9.26;100.00;100794.53;5039292;28;20029;-70
2023/11/20 06:03:13;;;;;;;27.23;6.22;;;;;;;9.26;100.00;100794.53;5046045;28;20025;-71
2023/11/20 06:05:39;;;;;;;29.42;6.28;;;;;;;9.25;100.00;100796.28;5044549;28;20494;-71
2023/11/20 06:08:04;;;;;;;26.73;5.05;;;;;;;9.27;100.00;100801.56;5044829;28;20381;-70
2023/11/20 06:10:29;;;;;;;25.98;5.35;;;;;;;9.25;100.00;100811.25;5045531;28;20385;-71
2023/11/20 06:12:55;;;;;;;25.58;5.30;;;;;;;9.23;100.00;100805.94;5043497;28;20025;-71
2023/11/20 06:15:20;;;;;;;23.38;5.07;;;;;;;9.17;100.00;100797.09;5046369;28;20036;-70
2023/11/20 06:17:45;;;;;;;26.95;5.97;;;;;;;9.17;100.00;100810.28;5042068;28;20034;-70
2023/11/20 06:20:12;;;;;;;25.58;5.53;;;;;;;9.14;100.00;100811.13;5045352;28;20033;-71
2023/11/20 06:22:39;;;;;;;26.25;5.43;;;;;;;9.11;100.00;100810.22;5044529;28;20033;-72
2023/11/20 06:25:06;;;;;;;26.52;5.47;;;;;;;9.11;100.00;100820.78;5044486;28;20029;-71
2023/11/20 06:27:32;;;;;;;25.40;5.85;;;;;;;9.09;100.00;100807.56;5045061;28;20060;-70
2023/11/20 06:29:57;;;;;;;24.90;5.40;;;;;;;9.03;100.00;100813.66;5043376;28;20049;-71
2023/11/20 06:32:23;;;;;;;26.27;5.88;;;;;;;8.95;100.00;100809.19;5046361;28;20451;-71
2023/11/20 06:34:49;;;;;;;27.13;5.85;;;;;;;8.88;100.00;100826.66;5038593;28;20041;-72
2023/11/20 06:37:16;;;;;;;27.15;6.03;;;;;;;8.85;100.00;100830.19;5045369;28;20036;-71
2023/11/20 06:39:41;;;;;;;26.00;5.50;;;;;;;8.79;100.00;100827.44;5043396;28;20037;-70
2023/11/20 06:42:07;;;;;;;27.02;5.60;;;;;;;8.76;100.00;100818.63;5044295;28;20088;-71
2023/11/20 06:44:32;;;;;;;26.25;5.40;;;;;;;8.73;100.00;100824.75;5044624;28;20033;-72
2023/11/20 06:46:57;;;;;;;25.52;5.60;;;;;;;8.70;100.00;100824.72;5043094;28;20026;-72
2023/11/20 06:49:23;;;;;;;26.80;5.80;;;;;;;8.71;100.00;100824.72;5045755;28;20388;-71
2023/11/20 06:51:48;;;;;;;24.77;5.43;;;;;;;8.63;100.00;100823.75;5041030;28;20091;-72
2023/11/20 06:54:14;;;;;;;25.25;5.32;;;;;;;8.67;100.00;100820.28;5045073;28;20040;-71
2023/11/20 06:56:39;;;;;;;25.45;5.70;;;;;;;8.68;100.00;100832.63;5043500;28;20143;-72
2023/11/20 06:59:04;;;;;;;27.25;5.35;;;;;;;8.65;100.00;100819.41;5042865;28;20037;-73
2023/11/20 07:01:30;;;;;;;28.67;5.70;;;;;;;8.65;100.00;100837.84;5044662;28;20044;-72
2023/11/20 07:03:56;;;;;;;27.05;6.07;;;;;;;8.68;100.00;100826.47;5042263;28;20120;-71
2023/11/20 07:06:23;;;;;;;27.35;5.55;;;;;;;8.71;100.00;100830.00;5045474;28;20411;-72
2023/11/20 07:08:48;;;;;;;26.65;5.57;;;;;;;8.71;100.00;100827.38;5041839;28;20468;-71
2023/11/20 07:11:14;;;;;;;27.48;5.60;;;;;;;8.70;100.00;100824.72;5044837;28;20086;-72
2023/11/20 07:13:40;;;;;;;26.27;5.38;;;;;;;8.65;100.00;100829.94;5043188;28;20384;-70
2023/11/20 07:16:06;;;;;;;28.52;5.80;;;;;;;8.60;100.00;100833.38;5043541;28;20495;-71
2023/11/20 07:18:33;;;;;;;30.70;5.88;;;;;;;8.56;100.00;100835.09;5043983;28;20033;-71
2023/11/20 07:20:58;;;;;;;26.27;5.28;;;;;;;8.49;100.00;100834.13;5042332;28;20029;-71
2023/11/20 07:23:24;;;;;;;26.60;5.85;;;;;;;8.47;100.00;100837.59;5045093;28;20495;-72
2023/11/20 07:25:50;;;;;;;29.55;5.65;;;;;;;8.43;100.00;100841.94;5041598;28;20032;-72
2023/11/20 07:28:15;;;;;;;26.42;5.47;;;;;;;8.42;100.00;100855.06;5044684;28;20145;-72
2023/11/20 07:30:41;;;;;;;25.33;4.78;;;;;;;8.44;100.00;100853.34;5042577;28;20391;-71
2023/11/20 07:33:07;;;;;;;29.02;5.32;;;;;;;8.43;100.00;100859.47;5043073;28;20759;-72
2023/11/20 07:35:32;;;;;;;30.40;5.47;;;;;;;8.51;100.00;100863.13;5043872;28;20033;-71
2023/11/20 07:37:57;;;;;;;29.27;5.43;;;;;;;8.57;100.00;100871.13;5041991;28;20030;-72
2023/11/20 07:40:24;;;;;;;24.90;4.85;;;;;;;8.62;100.00;100874.72;5043368;28;20081;-72
2023/11/20 07:42:50;;;;;;;28.17;5.25;;;;;;;8.61;100.00;100867.66;5036183;28;20079;-71
2023/11/20 07:45:15;;;;;;;23.13;4.50;;;;;;;8.58;100.00;100862.34;5044080;28;20028;-72
2023/11/20 07:47:41;;;;;;;25.67;5.10;;;;;;;8.52;100.00;100867.56;5042369;28;20079;-73
2023/11/20 07:50:10;;;;;;;27.65;5.20;;;;;;;8.54;100.00;100863.16;5043002;28;20472;-72
2023/11/20 07:52:36;;;;;;;26.90;5.40;;;;;;;8.56;100.00;100877.25;5043069;28;20055;-72
2023/11/20 07:55:02;;;;;;;25.73;4.80;;;;;;;8.58;100.00;100875.53;5041999;28;20022;-73
2023/11/20 07:57:28;;;;;;;25.40;4.97;;;;;;;8.59;100.00;100877.31;5044205;28;20029;-70
2023/11/20 07:59:53;;;;;;;27.30;5.10;;;;;;;8.64;100.00;100883.50;5041109;28;20443;-71
2023/11/20 08:02:19;;;;;;;26.48;5.07;;;;;;;8.68;100.00;100876.53;5044316;28;20099;-74
2023/11/20 08:04:45;;;;;;;25.83;5.40;;;;;;;8.78;100.00;100878.41;5040607;28;20124;-72
2023/11/20 08:07:12;;;;;;;28.30;5.38;;;;;;;8.85;100.00;100872.34;5043158;28;20029;-71
2023/11/20 08:09:38;;;;;;;27.08;5.65;;;;;;;8.87;100.00;100872.38;5042354;28;20062;-70
2023/11/20 08:12:04;;;;;;;28.23;5.90;;;;;;;8.91;100.00;100866.25;5042126;28;20025;-70
2023/11/20 08:14:30;;;;;;;25.13;5.25;;;;;;;9.03;100.00;100871.69;5043573;28;20086;-72
2023/11/20 08:16:56;;;;;;;28.70;5.72;;;;;;;9.06;100.00;100866.44;5038381;28;20087;-72
2023/11/20 08:19:22;;;;;;;26.80;5.50;;;;;;;9.10;100.00;100866.47;5043000;28;20025;-70
2023/11/20 08:21:48;;;;;;;26.92;6.13;;;;;;;9.20;100.00;100857.78;5041232;28;20037;-72
2023/11/20 08:24:13;;;;;;;27.10;5.70;;;;;;;9.29;100.00;100873.72;5044442;28;20029;-72
2023/11/20 08:26:39;;;;;;;25.75;6.30;;;;;;;9.38;100.00;100863.25;5040791;28;20096;-72
2023/11/20 08:29:06;;;;;;;26.00;6.05;;;;;;;9.41;100.00;100860.63;5043380;28;20057;-72
2023/11/20 08:31:32;;;;;;;26.48;6.32;;;;;;;9.40;100.00;100856.22;5041832;28;20045;-71
2023/11/20 08:33:57;;;;;;;24.42;5.63;;;;;;;9.47;100.00;100856.28;5042431;28;20068;-71
2023/11/20 08:36:23;;;;;;;25.05;5.30;;;;;;;9.52;100.00;100841.38;5042859;28;20040;-71
2023/11/20 08:38:48;;;;;;;27.02;5.40;;;;;;;9.56;100.00;100851.09;5041225;28;20358;-71
2023/11/20 08:41:14;;;;;;;25.00;5.40;;;;;;;9.67;100.00;100849.44;5044049;28;20526;-71
2023/11/20 08:43:40;;;;;;;25.98;5.82;;;;;;;9.77;100.00;100843.34;5040802;28;20025;-72
2023/11/20 08:46:08;;;;;;;24.75;5.45;;;;;;;9.88;100.00;100840.78;5043656;28;20171;-71
2023/11/20 08:48:33;;;;;;;23.70;5.20;;;;;;;10.07;100.00;100841.78;5041691;28;20376;-71
2023/11/20 08:50:59;;;;;;;23.38;5.30;;;;;;;10.24;100.00;100841.88;5042475;28;20030;-70
2023/11/20 08:53:25;;;;;;;24.83;5.18;;;;;;;10.33;100.00;100837.53;5042660;28;20116;-70
2023/11/20 08:55:50;;;;;;;24.85;5.30;;;;;;;10.51;100.00;100842.06;5041210;28;20033;-71
2023/11/20 08:58:16;;;;;;;23.75;5.30;;;;;;;10.59;100.00;100833.28;5043612;28;20445;-71
2023/11/20 09:00:42;;;;;;;23.02;4.95;;;;;;;10.65;100.00;100824.50;5040526;28;20029;-70
2023/11/20 09:03:07;;;;;;;22.45;4.72;;;;;;;10.53;100.00;100820.03;5043516;28;20020;-70
2023/11/20 09:05:33;;;;;;;22.75;4.60;;;;;;;10.36;100.00;100824.38;5040160;28;20025;-70
2023/11/20 09:07:58;;;;;;;21.10;4.50;;;;;;;10.27;100.00;100819.88;5042154;28;20485;-71
2023/11/20 09:10:24;;;;;;;22.05;4.85;;;;;;;10.23;100.00;100820.75;5042344;28;20036;-72
2023/11/20 09:12:50;;;;;;;24.38;4.97;;;;;;;10.22;100.00;100821.59;5041360;28;20030;-72
2023/11/20 09:15:16;;;;;;;22.25;4.95;;;;;;;10.24;100.00;100819.88;5043503;28;20033;-71
2023/11/20 09:17:42;;;;;;;23.85;5.05;;;;;;;10.31;100.00;100821.69;5040536;28;20493;-73
2023/11/20 09:20:12;;;;;;;21.92;4.78;;;;;;;10.50;100.00;100821.78;5043548;28;20542;-73
2023/11/20 09:22:38;;;;;;;23.00;5.30;;;;;;;10.72;100.00;100814.84;5044342;28;20032;-74
2023/11/20 09:25:04;;;;;;;20.02;4.78;;;;;;;10.55;100.00;100814.75;5046524;28;20037;-73
2023/11/20 09:27:29;;;;;;;21.77;5.25;;;;;;;10.64;100.00;100817.44;5045521;28;20152;-74
2023/11/20 09:29:56;;;;;;;21.73;5.18;;;;;;;10.76;100.00;100809.56;5045303;28;20030;-74
2023/11/20 09:32:21;;;;;;;22.58;5.07;;;;;;;10.65;100.00;100819.22;5046316;28;20083;-74
2023/11/20 09:34:47;;;;;;;22.73;5.00;;;;;;;10.56;100.00;100812.13;5044144;28;20049;-73
2023/11/20 09:37:12;;;;;;;23.05;5.05;;;;;;;10.56;100.00;100813.91;5045929;28;20086;-74
2023/11/20 09:39:41;;;;;;;22.17;5.03;;;;;;;10.65;100.00;100813.91;5043841;28;20077;-74
2023/11/20 09:42:08;;;;;;;22.05;4.72;;;;;;;10.64;100.00;100813.03;5046778;28;20032;-74
2023/11/20 09:44:38;;;;;;;23.67;4.95;;;;;;;10.58;100.00;100823.56;5044767;28;20037;-73
2023/11/20 09:47:06;;;;;;;21.48;4.75;;;;;;;10.73;100.00;100806.91;5044670;28;20029;-74
2023/11/20 09:49:32;;;;;;;22.23;4.45;;;;;;;10.82;100.00;100821.91;5044887;28;20052;-74
2023/11/20 09:51:59;;;;;;;21.60;5.13;;;;;;;10.94;100.00;100816.66;5045432;28;20040;-74
2023/11/20 09:54:25;;;;;;;21.92;4.57;;;;;;;10.94;100.00;100807.84;5045675;28;20044;-74
2023/11/20 09:56:53;;;;;;;24.05;5.35;;;;;;;10.82;100.00;100806.91;5044091;28;20469;-71
2023/11/20 09:59:20;;;;;;;23.23;4.72;;;;;;;10.69;100.00;100813.06;5046337;28;20495;-70
2023/11/20 10:01:48;;;;;;;21.08;4.90;;;;;;;10.64;100.00;100814.78;5043212;28;20043;-71
2023/11/20 10:04:17;;;;;;;21.70;4.85;;;;;;;10.63;100.00;100810.41;5039837;28;20084;-72
2023/11/20 10:06:44;;;;;;;21.17;4.75;;;;;;;10.52;100.00;100809.47;5039600;28;20033;-72
2023/11/20 10:09:11;;;;;;;22.17;5.00;;;;;;;10.57;100.00;100799.78;5046424;28;20017;-71
2023/11/20 10:11:43;;;;;;;19.80;4.53;;;;;;;10.82;100.00;100796.34;5043607;28;20030;-70
2023/11/20 10:14:09;;;;;;;21.38;5.25;;;;;;;10.87;100.00;100796.34;5046405;28;20419;-71
2023/11/20 10:16:37;;;;;;;21.85;5.57;;;;;;;10.82;100.00;100806.91;5043658;28;20029;-71
2023/11/20 10:19:04;;;;;;;21.80;4.88;;;;;;;10.77;100.00;100779.56;5045226;28;20121;-71
2023/11/20 10:21:31;;;;;;;21.50;5.00;;;;;;;10.99;100.00;100774.31;5026784;28;20056;-72
2023/11/20 10:23:57;;;;;;;21.45;4.63;;;;;;;11.27;100.00;100777.91;5044320;28;20469;-72
2023/11/20 10:26:23;;;;;;;22.00;4.88;;;;;;;11.36;100.00;100774.38;5045571;28;20083;-72
2023/11/20 10:28:48;;;;;;;20.65;4.88;;;;;;;11.33;100.00;100783.19;5043279;28;20028;-72
2023/11/20 10:31:13;;;;;;;20.00;4.78;;;;;;;11.14;100.00;100777.00;5046246;28;20032;-72
2023/11/20 10:33:39;;;;;;;20.38;4.40;;;;;;;11.09;100.00;100773.47;5042821;28;20024;-71
2023/11/20 10:36:15;;;;;;;20.60;4.40;;;;;;;12.05;100.00;100776.06;5045195;28;20049;-71
2023/11/20 10:38:43;;;;;;;20.75;4.43;;;;;;;12.05;100.00;100772.53;5042573;28;20469;-71
2023/11/20 10:41:09;;;;;;;20.45;4.50;;;;;;;11.71;100.00;100770.81;5045499;28;20059;-72
2023/11/20 10:43:40;;;;;;;18.77;4.40;;;;;;;11.99;100.00;100761.06;5043512;28;20025;-71
2023/11/20 10:46:06;;;;;;;21.33;4.50;;;;;;;12.69;100.00;100763.44;5045551;28;20126;-72
2023/11/20 10:48:36;;;;;;;20.58;4.60;;;;;;;12.19;100.00;100760.13;5043656;28;20480;-72
2023/11/20 10:51:07;;;;;;;21.80;4.68;;;;;;;12.08;100.00;100760.16;5044539;28;20021;-72
2023/11/20 10:53:38;;;;;;;18.73;3.92;;;;;;;11.84;100.00;100750.50;5043526;28;20116;-71
2023/11/20 10:56:09;;;;;;;20.40;4.30;;;;;;;11.63;100.00;100751.41;5044540;28;20018;-72
2023/11/20 10:58:35;;;;;;;18.85;4.28;;;;;;;11.32;100.00;100748.78;5042921;28;20025;-71
2023/11/20 11:01:01;;;;;;;20.40;4.28;;;;;;;11.21;100.00;100759.34;5044304;28;20360;-72
2023/11/20 11:03:30;;;;;;;21.17;4.20;;;;;;;11.12;100.00;100749.66;5043758;28;20036;-71
2023/11/20 11:06:00;;;;;;;20.17;3.90;;;;;;;10.94;100.00;100747.88;5043388;28;20077;-71
2023/11/20 11:08:28;;;;;;;18.85;3.75;;;;;;;11.01;100.00;100745.22;5043984;28;20068;-71